KLAS/LAS METAR and TAF weather

Enter ICAO airport designator
Station Type Date Time Source
KLAS METAR 2022/06/26 07:56 UTC NOAA

KLAS 260756Z 19003KT 10SM CLR 32/M02 A2994 RMK AO2 SLP104 T03171017 404060256


Station Type Date Time Source
KLAS Decoded METAR 2022/06/26 07:56 UTC NOAA

MCCARRAN INTERNATIONAL AIRPORT , NV, United States (KLAS) 36-07N 115-16W 636M
Jun 26, 2022 - 03:56 AM EDT / 2022.06.26 0756 UTC
Wind: from the S (190 degrees) at 3 MPH (3 KT):0
Visibility: 10 mile(s):0
Sky conditions: clear
Temperature: 89.1 F (31.7 C)
Dew Point: 28.9 F (-1.7 C)
Relative Humidity: 11%
Pressure (altimeter): 29.94 in. Hg (1013 hPa)
ob: KLAS 260756Z 19003KT 10SM CLR 32/M02 A2994 RMK AO2 SLP104 T03171017 404060256
cycle: 8

Station Type Date Time Source
KLAS TAF 2022/06/26 06:21 UTC NOAA

TAF KLAS 260520Z 2606/2712 14007KT P6SM SCT150
FM260800 21008KT P6SM SKC
FM261500 VRB05KT P6SM SKC
FM261800 09006KT P6SM FEW150
FM270400 21008KT P6SM FEW150

Example: see airport list